sensor_id;sensor_type;location;lat;lon;timestamp;P1;durP1;ratioP1;P2;durP2;ratioP2
40150;SDS011;25866;52.420;10.640;2022-07-29T00:00:43;1.77;;;0.75;;
40150;SDS011;25866;52.420;10.640;2022-07-29T00:03:12;4.03;;;0.93;;
40150;SDS011;25866;52.420;10.640;2022-07-29T00:05:39;2.20;;;0.88;;
40150;SDS011;25866;52.420;10.640;2022-07-29T00:10:41;3.47;;;0.70;;
40150;SDS011;25866;52.420;10.640;2022-07-29T00:13:07;1.92;;;0.60;;
40150;SDS011;25866;52.420;10.640;2022-07-29T00:15:33;3.63;;;1.10;;
40150;SDS011;25866;52.420;10.640;2022-07-29T00:17:59;4.38;;;2.40;;
40150;SDS011;25866;52.420;10.640;2022-07-29T00:20:36;5.65;;;1.50;;
40150;SDS011;25866;52.420;10.640;2022-07-29T00:23:02;1.50;;;0.90;;
40150;SDS011;25866;52.420;10.640;2022-07-29T00:25:28;2.33;;;1.70;;
40150;SDS011;25866;52.420;10.640;2022-07-29T00:27:53;2.05;;;0.90;;
40150;SDS011;25866;52.420;10.640;2022-07-29T00:33:24;3.63;;;1.00;;
40150;SDS011;25866;52.420;10.640;2022-07-29T00:35:49;1.08;;;0.73;;
40150;SDS011;25866;52.420;10.640;2022-07-29T00:38:16;3.67;;;0.95;;
40150;SDS011;25866;52.420;10.640;2022-07-29T00:40:45;0.82;;;0.80;;
40150;SDS011;25866;52.420;10.640;2022-07-29T00:43:12;3.90;;;0.90;;
40150;SDS011;25866;52.420;10.640;2022-07-29T00:45:38;1.15;;;0.77;;
40150;SDS011;25866;52.420;10.640;2022-07-29T00:48:05;1.35;;;0.82;;
40150;SDS011;25866;52.420;10.640;2022-07-29T00:50:37;2.50;;;1.00;;
40150;SDS011;25866;52.420;10.640;2022-07-29T00:53:04;5.03;;;1.35;;
40150;SDS011;25866;52.420;10.640;2022-07-29T00:55:31;4.03;;;1.77;;
40150;SDS011;25866;52.420;10.640;2022-07-29T00:57:57;1.92;;;1.20;;
40150;SDS011;25866;52.420;10.640;2022-07-29T01:00:24;3.63;;;0.93;;
40150;SDS011;25866;52.420;10.640;2022-07-29T01:02:51;1.75;;;0.90;;
40150;SDS011;25866;52.420;10.640;2022-07-29T01:05:18;3.83;;;0.90;;
40150;SDS011;25866;52.420;10.640;2022-07-29T01:07:46;2.13;;;0.80;;
40150;SDS011;25866;52.420;10.640;2022-07-29T01:10:14;3.25;;;1.05;;
40150;SDS011;25866;52.420;10.640;2022-07-29T01:12:43;2.17;;;0.95;;
40150;SDS011;25866;52.420;10.640;2022-07-29T01:15:11;1.45;;;0.85;;
40150;SDS011;25866;52.420;10.640;2022-07-29T01:26:42;2.65;;;1.10;;
40150;SDS011;25866;52.420;10.640;2022-07-29T01:32:33;2.47;;;1.05;;
40150;SDS011;25866;52.420;10.640;2022-07-29T01:35:04;1.35;;;0.95;;
40150;SDS011;25866;52.420;10.640;2022-07-29T01:37:37;1.73;;;0.68;;
40150;SDS011;25866;52.420;10.640;2022-07-29T01:40:22;2.35;;;1.08;;
40150;SDS011;25866;52.420;10.640;2022-07-29T01:42:54;1.52;;;0.75;;
40150;SDS011;25866;52.420;10.640;2022-07-29T01:45:37;2.05;;;0.88;;
40150;SDS011;25866;52.420;10.640;2022-07-29T01:48:13;3.22;;;0.93;;
40150;SDS011;25866;52.420;10.640;2022-07-29T01:50:53;3.42;;;1.35;;
40150;SDS011;25866;52.420;10.640;2022-07-29T01:53:34;2.88;;;1.25;;
40150;SDS011;25866;52.420;10.640;2022-07-29T01:56:10;1.30;;;0.82;;
40150;SDS011;25866;52.420;10.640;2022-07-29T01:58:38;3.78;;;1.20;;
40150;SDS011;25866;52.420;10.640;2022-07-29T02:01:10;5.53;;;1.08;;
40150;SDS011;25866;52.420;10.640;2022-07-29T02:03:38;3.65;;;0.98;;
40150;SDS011;25866;52.420;10.640;2022-07-29T02:06:07;2.80;;;1.17;;
40150;SDS011;25866;52.420;10.640;2022-07-29T02:08:34;2.90;;;1.20;;
40150;SDS011;25866;52.420;10.640;2022-07-29T02:11:01;2.03;;;1.08;;
40150;SDS011;25866;52.420;10.640;2022-07-29T02:13:30;4.07;;;1.00;;
40150;SDS011;25866;52.420;10.640;2022-07-29T02:15:57;1.10;;;0.80;;
40150;SDS011;25866;52.420;10.640;2022-07-29T02:18:24;3.40;;;0.82;;
40150;SDS011;25866;52.420;10.640;2022-07-29T02:20:53;8.98;;;1.15;;
40150;SDS011;25866;52.420;10.640;2022-07-29T02:23:23;5.20;;;1.70;;
40150;SDS011;25866;52.420;10.640;2022-07-29T02:25:51;3.40;;;1.25;;
40150;SDS011;25866;52.420;10.640;2022-07-29T02:28:20;2.90;;;0.98;;
40150;SDS011;25866;52.420;10.640;2022-07-29T02:30:49;1.63;;;0.90;;
40150;SDS011;25866;52.420;10.640;2022-07-29T02:35:49;1.35;;;1.00;;
40150;SDS011;25866;52.420;10.640;2022-07-29T02:38:15;4.40;;;1.00;;
40150;SDS011;25866;52.420;10.640;2022-07-29T02:41:02;4.30;;;1.20;;
40150;SDS011;25866;52.420;10.640;2022-07-29T02:43:43;1.52;;;1.00;;
40150;SDS011;25866;52.420;10.640;2022-07-29T02:46:13;2.10;;;0.88;;
40150;SDS011;25866;52.420;10.640;2022-07-29T02:48:44;4.40;;;1.30;;
40150;SDS011;25866;52.420;10.640;2022-07-29T02:51:25;2.40;;;1.10;;
40150;SDS011;25866;52.420;10.640;2022-07-29T02:53:58;4.13;;;1.48;;
40150;SDS011;25866;52.420;10.640;2022-07-29T02:56:27;2.22;;;1.05;;
40150;SDS011;25866;52.420;10.640;2022-07-29T02:59:00;2.03;;;0.90;;
40150;SDS011;25866;52.420;10.640;2022-07-29T03:01:30;1.90;;;1.10;;
40150;SDS011;25866;52.420;10.640;2022-07-29T03:04:04;6.03;;;1.30;;
40150;SDS011;25866;52.420;10.640;2022-07-29T03:06:30;2.05;;;1.08;;
40150;SDS011;25866;52.420;10.640;2022-07-29T03:08:59;2.92;;;1.20;;
40150;SDS011;25866;52.420;10.640;2022-07-29T03:11:25;2.72;;;1.30;;
40150;SDS011;25866;52.420;10.640;2022-07-29T03:13:52;4.15;;;1.10;;
40150;SDS011;25866;52.420;10.640;2022-07-29T03:16:19;1.60;;;1.05;;
40150;SDS011;25866;52.420;10.640;2022-07-29T03:18:46;4.22;;;1.20;;
40150;SDS011;25866;52.420;10.640;2022-07-29T03:21:12;2.33;;;1.08;;
40150;SDS011;25866;52.420;10.640;2022-07-29T03:23:42;3.85;;;1.08;;
40150;SDS011;25866;52.420;10.640;2022-07-29T03:26:10;2.78;;;0.98;;
40150;SDS011;25866;52.420;10.640;2022-07-29T03:28:35;3.60;;;1.40;;
40150;SDS011;25866;52.420;10.640;2022-07-29T03:31:01;1.58;;;1.10;;
40150;SDS011;25866;52.420;10.640;2022-07-29T03:33:27;1.83;;;0.98;;
40150;SDS011;25866;52.420;10.640;2022-07-29T03:35:53;3.90;;;1.38;;
40150;SDS011;25866;52.420;10.640;2022-07-29T03:38:19;4.97;;;1.48;;
40150;SDS011;25866;52.420;10.640;2022-07-29T03:43:21;3.90;;;1.60;;
40150;SDS011;25866;52.420;10.640;2022-07-29T03:45:49;5.35;;;1.30;;
40150;SDS011;25866;52.420;10.640;2022-07-29T03:48:19;4.88;;;1.25;;
40150;SDS011;25866;52.420;10.640;2022-07-29T03:50:49;5.13;;;1.52;;
40150;SDS011;25866;52.420;10.640;2022-07-29T03:53:18;4.90;;;1.50;;
40150;SDS011;25866;52.420;10.640;2022-07-29T03:55:46;0.98;;;0.82;;
40150;SDS011;25866;52.420;10.640;2022-07-29T03:58:17;2.75;;;1.20;;
40150;SDS011;25866;52.420;10.640;2022-07-29T04:00:44;2.10;;;1.25;;
40150;SDS011;25866;52.420;10.640;2022-07-29T04:03:11;2.70;;;1.38;;
40150;SDS011;25866;52.420;10.640;2022-07-29T04:05:38;1.90;;;1.17;;
40150;SDS011;25866;52.420;10.640;2022-07-29T04:08:04;3.38;;;1.45;;
40150;SDS011;25866;52.420;10.640;2022-07-29T04:10:30;2.92;;;1.30;;
40150;SDS011;25866;52.420;10.640;2022-07-29T04:15:24;4.43;;;1.40;;
40150;SDS011;25866;52.420;10.640;2022-07-29T04:17:50;6.53;;;1.40;;
40150;SDS011;25866;52.420;10.640;2022-07-29T04:20:16;4.43;;;1.45;;
40150;SDS011;25866;52.420;10.640;2022-07-29T04:22:42;1.95;;;1.38;;
40150;SDS011;25866;52.420;10.640;2022-07-29T04:25:10;6.53;;;1.50;;
40150;SDS011;25866;52.420;10.640;2022-07-29T04:27:35;2.65;;;1.20;;
40150;SDS011;25866;52.420;10.640;2022-07-29T04:30:21;2.58;;;1.35;;
40150;SDS011;25866;52.420;10.640;2022-07-29T04:32:47;3.00;;;1.52;;
40150;SDS011;25866;52.420;10.640;2022-07-29T04:35:19;2.30;;;1.42;;
40150;SDS011;25866;52.420;10.640;2022-07-29T04:37:45;3.70;;;1.35;;
40150;SDS011;25866;52.420;10.640;2022-07-29T04:40:10;2.53;;;1.33;;
40150;SDS011;25866;52.420;10.640;2022-07-29T04:42:37;3.20;;;1.50;;
40150;SDS011;25866;52.420;10.640;2022-07-29T04:45:09;4.88;;;2.03;;
40150;SDS011;25866;52.420;10.640;2022-07-29T04:47:34;4.43;;;1.40;;
40150;SDS011;25866;52.420;10.640;2022-07-29T04:50:00;3.33;;;1.60;;
40150;SDS011;25866;52.420;10.640;2022-07-29T04:52:26;3.10;;;1.60;;
40150;SDS011;25866;52.420;10.640;2022-07-29T04:54:53;2.97;;;1.55;;
40150;SDS011;25866;52.420;10.640;2022-07-29T04:57:19;2.95;;;1.80;;
40150;SDS011;25866;52.420;10.640;2022-07-29T04:59:45;5.70;;;1.83;;
40150;SDS011;25866;52.420;10.640;2022-07-29T05:02:10;4.40;;;1.95;;
40150;SDS011;25866;52.420;10.640;2022-07-29T05:04:36;2.95;;;1.83;;
40150;SDS011;25866;52.420;10.640;2022-07-29T05:07:02;2.90;;;1.70;;
40150;SDS011;25866;52.420;10.640;2022-07-29T05:09:27;4.40;;;1.73;;
40150;SDS011;25866;52.420;10.640;2022-07-29T05:11:53;3.70;;;1.42;;
40150;SDS011;25866;52.420;10.640;2022-07-29T05:14:19;2.85;;;1.60;;
40150;SDS011;25866;52.420;10.640;2022-07-29T05:16:45;3.63;;;2.13;;
40150;SDS011;25866;52.420;10.640;2022-07-29T05:19:11;3.35;;;1.60;;
40150;SDS011;25866;52.420;10.640;2022-07-29T05:21:36;2.72;;;1.85;;
40150;SDS011;25866;52.420;10.640;2022-07-29T05:24:02;3.58;;;1.70;;
40150;SDS011;25866;52.420;10.640;2022-07-29T05:26:28;3.40;;;1.75;;
40150;SDS011;25866;52.420;10.640;2022-07-29T05:28:54;5.65;;;2.20;;
40150;SDS011;25866;52.420;10.640;2022-07-29T05:31:19;5.57;;;1.90;;
40150;SDS011;25866;52.420;10.640;2022-07-29T05:33:45;5.53;;;2.00;;
40150;SDS011;25866;52.420;10.640;2022-07-29T05:36:12;4.72;;;2.17;;
40150;SDS011;25866;52.420;10.640;2022-07-29T05:38:37;2.70;;;1.80;;
40150;SDS011;25866;52.420;10.640;2022-07-29T05:41:04;8.30;;;2.08;;
40150;SDS011;25866;52.420;10.640;2022-07-29T05:43:30;2.65;;;1.70;;
40150;SDS011;25866;52.420;10.640;2022-07-29T05:46:02;5.63;;;1.92;;
40150;SDS011;25866;52.420;10.640;2022-07-29T05:48:28;4.13;;;1.98;;
40150;SDS011;25866;52.420;10.640;2022-07-29T05:50:54;2.97;;;1.67;;
40150;SDS011;25866;52.420;10.640;2022-07-29T05:53:20;4.50;;;2.17;;
40150;SDS011;25866;52.420;10.640;2022-07-29T05:55:48;3.75;;;1.70;;
40150;SDS011;25866;52.420;10.640;2022-07-29T05:58:15;5.97;;;1.85;;
40150;SDS011;25866;52.420;10.640;2022-07-29T06:00:40;3.60;;;1.92;;
40150;SDS011;25866;52.420;10.640;2022-07-29T06:03:06;3.97;;;2.10;;
40150;SDS011;25866;52.420;10.640;2022-07-29T06:05:33;3.22;;;1.77;;
40150;SDS011;25866;52.420;10.640;2022-07-29T06:07:59;4.07;;;2.17;;
40150;SDS011;25866;52.420;10.640;2022-07-29T06:10:24;4.68;;;2.42;;
40150;SDS011;25866;52.420;10.640;2022-07-29T06:12:50;3.08;;;1.60;;
40150;SDS011;25866;52.420;10.640;2022-07-29T06:15:18;4.03;;;1.77;;
40150;SDS011;25866;52.420;10.640;2022-07-29T06:17:43;3.72;;;1.85;;
40150;SDS011;25866;52.420;10.640;2022-07-29T06:20:09;5.53;;;2.15;;
40150;SDS011;25866;52.420;10.640;2022-07-29T06:22:35;5.50;;;2.05;;
40150;SDS011;25866;52.420;10.640;2022-07-29T06:25:03;4.85;;;2.30;;
40150;SDS011;25866;52.420;10.640;2022-07-29T06:27:29;4.63;;;2.25;;
40150;SDS011;25866;52.420;10.640;2022-07-29T06:29:55;6.85;;;2.47;;
40150;SDS011;25866;52.420;10.640;2022-07-29T06:32:22;2.75;;;1.75;;
40150;SDS011;25866;52.420;10.640;2022-07-29T06:37:18;6.78;;;2.60;;
40150;SDS011;25866;52.420;10.640;2022-07-29T06:39:44;4.45;;;1.80;;
40150;SDS011;25866;52.420;10.640;2022-07-29T06:42:09;3.10;;;2.08;;
40150;SDS011;25866;52.420;10.640;2022-07-29T06:44:35;2.95;;;1.83;;
40150;SDS011;25866;52.420;10.640;2022-07-29T06:47:01;5.68;;;2.03;;
40150;SDS011;25866;52.420;10.640;2022-07-29T06:49:27;5.38;;;1.80;;
40150;SDS011;25866;52.420;10.640;2022-07-29T06:51:53;4.90;;;1.92;;
40150;SDS011;25866;52.420;10.640;2022-07-29T06:54:19;5.97;;;2.15;;
40150;SDS011;25866;52.420;10.640;2022-07-29T06:56:47;6.57;;;2.33;;
40150;SDS011;25866;52.420;10.640;2022-07-29T06:59:13;5.10;;;1.83;;
40150;SDS011;25866;52.420;10.640;2022-07-29T07:01:40;7.10;;;2.15;;
40150;SDS011;25866;52.420;10.640;2022-07-29T07:04:07;4.70;;;2.33;;
40150;SDS011;25866;52.420;10.640;2022-07-29T07:06:34;3.67;;;2.13;;
40150;SDS011;25866;52.420;10.640;2022-07-29T07:09:00;7.07;;;1.98;;
40150;SDS011;25866;52.420;10.640;2022-07-29T07:11:26;5.72;;;2.13;;
40150;SDS011;25866;52.420;10.640;2022-07-29T07:13:52;4.10;;;1.70;;
40150;SDS011;25866;52.420;10.640;2022-07-29T07:16:27;3.00;;;1.85;;
40150;SDS011;25866;52.420;10.640;2022-07-29T07:18:53;5.25;;;2.10;;
40150;SDS011;25866;52.420;10.640;2022-07-29T07:21:18;2.95;;;2.00;;
40150;SDS011;25866;52.420;10.640;2022-07-29T07:23:44;4.15;;;2.00;;
40150;SDS011;25866;52.420;10.640;2022-07-29T07:26:12;6.65;;;1.90;;
40150;SDS011;25866;52.420;10.640;2022-07-29T07:28:38;2.92;;;1.90;;
40150;SDS011;25866;52.420;10.640;2022-07-29T07:31:04;4.88;;;2.33;;
40150;SDS011;25866;52.420;10.640;2022-07-29T07:33:30;3.83;;;1.90;;
40150;SDS011;25866;52.420;10.640;2022-07-29T07:35:58;3.40;;;2.00;;
40150;SDS011;25866;52.420;10.640;2022-07-29T07:38:23;3.25;;;2.00;;
40150;SDS011;25866;52.420;10.640;2022-07-29T07:40:49;3.17;;;1.85;;
40150;SDS011;25866;52.420;10.640;2022-07-29T07:43:15;4.40;;;1.83;;
40150;SDS011;25866;52.420;10.640;2022-07-29T07:45:53;1.95;;;1.60;;
40150;SDS011;25866;52.420;10.640;2022-07-29T07:48:18;3.67;;;1.63;;
40150;SDS011;25866;52.420;10.640;2022-07-29T07:50:44;4.10;;;1.73;;
40150;SDS011;25866;52.420;10.640;2022-07-29T07:53:09;6.70;;;1.80;;
40150;SDS011;25866;52.420;10.640;2022-07-29T07:58:31;3.22;;;1.95;;
40150;SDS011;25866;52.420;10.640;2022-07-29T08:00:56;5.43;;;1.88;;
40150;SDS011;25866;52.420;10.640;2022-07-29T08:03:22;3.63;;;2.00;;
40150;SDS011;25866;52.420;10.640;2022-07-29T08:05:49;4.10;;;1.75;;
40150;SDS011;25866;52.420;10.640;2022-07-29T08:08:16;2.83;;;1.60;;
40150;SDS011;25866;52.420;10.640;2022-07-29T08:10:42;6.10;;;2.20;;
40150;SDS011;25866;52.420;10.640;2022-07-29T08:13:17;6.47;;;1.77;;
40150;SDS011;25866;52.420;10.640;2022-07-29T08:15:46;4.13;;;1.88;;
40150;SDS011;25866;52.420;10.640;2022-07-29T08:18:12;4.05;;;1.70;;
40150;SDS011;25866;52.420;10.640;2022-07-29T08:20:38;2.85;;;1.90;;
40150;SDS011;25866;52.420;10.640;2022-07-29T08:23:08;4.53;;;2.25;;
40150;SDS011;25866;52.420;10.640;2022-07-29T08:25:35;4.13;;;1.95;;
40150;SDS011;25866;52.420;10.640;2022-07-29T08:28:03;4.55;;;2.15;;
40150;SDS011;25866;52.420;10.640;2022-07-29T08:30:28;5.43;;;1.98;;
40150;SDS011;25866;52.420;10.640;2022-07-29T08:32:54;3.05;;;1.80;;
40150;SDS011;25866;52.420;10.640;2022-07-29T08:35:20;4.40;;;1.92;;
40150;SDS011;25866;52.420;10.640;2022-07-29T08:37:49;6.32;;;2.17;;
40150;SDS011;25866;52.420;10.640;2022-07-29T08:40:15;3.60;;;2.28;;
40150;SDS011;25866;52.420;10.640;2022-07-29T08:42:41;6.03;;;2.13;;
40150;SDS011;25866;52.420;10.640;2022-07-29T08:45:07;2.47;;;1.73;;
40150;SDS011;25866;52.420;10.640;2022-07-29T08:47:50;6.57;;;2.22;;
40150;SDS011;25866;52.420;10.640;2022-07-29T08:50:18;4.43;;;1.98;;
40150;SDS011;25866;52.420;10.640;2022-07-29T08:52:43;2.88;;;2.13;;
40150;SDS011;25866;52.420;10.640;2022-07-29T08:55:10;4.30;;;1.70;;
40150;SDS011;25866;52.420;10.640;2022-07-29T08:57:36;4.57;;;2.13;;
40150;SDS011;25866;52.420;10.640;2022-07-29T09:00:05;4.07;;;2.00;;
40150;SDS011;25866;52.420;10.640;2022-07-29T09:02:35;3.85;;;1.83;;
40150;SDS011;25866;52.420;10.640;2022-07-29T09:05:05;4.30;;;1.90;;
40150;SDS011;25866;52.420;10.640;2022-07-29T09:07:47;4.50;;;2.15;;
40150;SDS011;25866;52.420;10.640;2022-07-29T09:10:13;3.83;;;1.58;;
40150;SDS011;25866;52.420;10.640;2022-07-29T09:12:39;7.40;;;2.00;;
40150;SDS011;25866;52.420;10.640;2022-07-29T09:15:05;3.50;;;2.03;;
40150;SDS011;25866;52.420;10.640;2022-07-29T09:17:48;6.63;;;2.05;;
40150;SDS011;25866;52.420;10.640;2022-07-29T09:20:15;4.13;;;1.90;;
40150;SDS011;25866;52.420;10.640;2022-07-29T09:22:45;5.68;;;1.73;;
40150;SDS011;25866;52.420;10.640;2022-07-29T09:25:14;2.85;;;1.60;;
40150;SDS011;25866;52.420;10.640;2022-07-29T09:28:06;2.00;;;1.42;;
40150;SDS011;25866;52.420;10.640;2022-07-29T09:30:35;2.25;;;1.60;;
40150;SDS011;25866;52.420;10.640;2022-07-29T09:33:04;2.90;;;1.55;;
40150;SDS011;25866;52.420;10.640;2022-07-29T09:35:30;6.32;;;1.95;;
40150;SDS011;25866;52.420;10.640;2022-07-29T09:38:00;4.93;;;1.98;;
40150;SDS011;25866;52.420;10.640;2022-07-29T09:40:40;4.93;;;1.67;;
40150;SDS011;25866;52.420;10.640;2022-07-29T09:43:12;4.32;;;1.77;;
40150;SDS011;25866;52.420;10.640;2022-07-29T09:45:38;3.60;;;1.92;;
40150;SDS011;25866;52.420;10.640;2022-07-29T09:50:52;25.30;;;2.60;;
40150;SDS011;25866;52.420;10.640;2022-07-29T09:53:37;3.97;;;1.80;;
40150;SDS011;25866;52.420;10.640;2022-07-29T09:56:05;3.47;;;1.83;;
40150;SDS011;25866;52.420;10.640;2022-07-29T09:58:32;5.53;;;2.13;;
40150;SDS011;25866;52.420;10.640;2022-07-29T10:00:59;2.67;;;1.70;;
40150;SDS011;25866;52.420;10.640;2022-07-29T10:03:24;2.92;;;1.77;;
40150;SDS011;25866;52.420;10.640;2022-07-29T10:13:39;5.13;;;2.28;;
40150;SDS011;25866;52.420;10.640;2022-07-29T10:16:06;4.70;;;1.90;;
40150;SDS011;25866;52.420;10.640;2022-07-29T10:18:33;4.43;;;1.90;;
40150;SDS011;25866;52.420;10.640;2022-07-29T10:20:59;3.05;;;1.83;;
40150;SDS011;25866;52.420;10.640;2022-07-29T10:23:26;4.53;;;1.63;;
40150;SDS011;25866;52.420;10.640;2022-07-29T10:25:54;5.28;;;1.80;;
40150;SDS011;25866;52.420;10.640;2022-07-29T10:30:58;5.78;;;1.70;;
40150;SDS011;25866;52.420;10.640;2022-07-29T10:33:44;6.00;;;1.60;;
40150;SDS011;25866;52.420;10.640;2022-07-29T10:44:43;3.95;;;1.75;;
40150;SDS011;25866;52.420;10.640;2022-07-29T10:47:21;8.05;;;2.08;;
40150;SDS011;25866;52.420;10.640;2022-07-29T10:49:59;2.08;;;1.38;;
40150;SDS011;25866;52.420;10.640;2022-07-29T10:55:41;2.53;;;1.48;;
40150;SDS011;25866;52.420;10.640;2022-07-29T10:58:21;5.30;;;1.70;;
40150;SDS011;25866;52.420;10.640;2022-07-29T11:00:51;4.70;;;1.50;;
40150;SDS011;25866;52.420;10.640;2022-07-29T11:06:15;6.35;;;2.03;;
40150;SDS011;25866;52.420;10.640;2022-07-29T11:08:43;7.28;;;1.58;;
40150;SDS011;25866;52.420;10.640;2022-07-29T11:13:52;2.55;;;1.50;;
40150;SDS011;25866;52.420;10.640;2022-07-29T11:16:20;4.47;;;1.67;;
40150;SDS011;25866;52.420;10.640;2022-07-29T11:21:48;2.92;;;1.70;;
40150;SDS011;25866;52.420;10.640;2022-07-29T11:24:24;2.65;;;1.77;;
40150;SDS011;25866;52.420;10.640;2022-07-29T11:27:15;6.88;;;1.58;;
40150;SDS011;25866;52.420;10.640;2022-07-29T11:32:38;2.20;;;1.63;;
40150;SDS011;25866;52.420;10.640;2022-07-29T11:35:28;2.65;;;1.63;;
40150;SDS011;25866;52.420;10.640;2022-07-29T11:43:57;3.13;;;1.50;;
40150;SDS011;25866;52.420;10.640;2022-07-29T11:49:23;4.18;;;1.67;;
40150;SDS011;25866;52.420;10.640;2022-07-29T11:51:51;2.97;;;1.50;;
40150;SDS011;25866;52.420;10.640;2022-07-29T11:54:22;4.53;;;1.50;;
40150;SDS011;25866;52.420;10.640;2022-07-29T11:56:50;3.40;;;1.70;;
40150;SDS011;25866;52.420;10.640;2022-07-29T12:01:56;3.17;;;1.90;;
40150;SDS011;25866;52.420;10.640;2022-07-29T12:04:25;3.17;;;2.00;;
40150;SDS011;25866;52.420;10.640;2022-07-29T12:06:53;4.57;;;2.08;;
40150;SDS011;25866;52.420;10.640;2022-07-29T12:09:20;3.05;;;1.77;;
40150;SDS011;25866;52.420;10.640;2022-07-29T12:11:46;4.63;;;1.65;;
40150;SDS011;25866;52.420;10.640;2022-07-29T12:16:55;3.22;;;1.65;;
40150;SDS011;25866;52.420;10.640;2022-07-29T12:21:53;5.60;;;1.55;;
40150;SDS011;25866;52.420;10.640;2022-07-29T12:24:20;4.45;;;1.88;;
40150;SDS011;25866;52.420;10.640;2022-07-29T12:29:24;2.65;;;1.70;;
40150;SDS011;25866;52.420;10.640;2022-07-29T12:31:53;3.15;;;1.50;;
40150;SDS011;25866;52.420;10.640;2022-07-29T12:34:20;4.55;;;1.52;;
40150;SDS011;25866;52.420;10.640;2022-07-29T12:36:48;5.95;;;1.85;;
40150;SDS011;25866;52.420;10.640;2022-07-29T12:39:18;2.67;;;1.42;;
40150;SDS011;25866;52.420;10.640;2022-07-29T12:41:44;3.97;;;1.60;;
40150;SDS011;25866;52.420;10.640;2022-07-29T12:44:11;2.60;;;1.45;;
40150;SDS011;25866;52.420;10.640;2022-07-29T12:46:36;3.20;;;1.45;;
40150;SDS011;25866;52.420;10.640;2022-07-29T12:49:02;3.15;;;1.45;;
40150;SDS011;25866;52.420;10.640;2022-07-29T12:51:34;3.30;;;1.52;;
40150;SDS011;25866;52.420;10.640;2022-07-29T12:54:19;4.05;;;1.50;;
40150;SDS011;25866;52.420;10.640;2022-07-29T12:56:45;5.50;;;1.70;;
40150;SDS011;25866;52.420;10.640;2022-07-29T12:59:18;3.25;;;1.40;;
40150;SDS011;25866;52.420;10.640;2022-07-29T13:01:46;3.38;;;1.50;;
40150;SDS011;25866;52.420;10.640;2022-07-29T13:04:23;3.97;;;1.70;;
40150;SDS011;25866;52.420;10.640;2022-07-29T13:09:38;5.63;;;1.50;;
40150;SDS011;25866;52.420;10.640;2022-07-29T13:12:11;3.63;;;1.60;;
40150;SDS011;25866;52.420;10.640;2022-07-29T13:14:42;4.18;;;1.50;;
40150;SDS011;25866;52.420;10.640;2022-07-29T13:17:14;2.35;;;1.40;;
40150;SDS011;25866;52.420;10.640;2022-07-29T13:19:45;5.20;;;1.60;;
40150;SDS011;25866;52.420;10.640;2022-07-29T13:22:13;2.70;;;1.30;;
40150;SDS011;25866;52.420;10.640;2022-07-29T13:27:13;2.88;;;1.42;;
40150;SDS011;25866;52.420;10.640;2022-07-29T13:29:43;4.68;;;1.58;;
40150;SDS011;25866;52.420;10.640;2022-07-29T13:32:09;1.98;;;1.40;;
40150;SDS011;25866;52.420;10.640;2022-07-29T13:34:34;3.33;;;1.60;;
40150;SDS011;25866;52.420;10.640;2022-07-29T13:37:00;2.30;;;1.48;;
40150;SDS011;25866;52.420;10.640;2022-07-29T13:39:26;3.17;;;1.40;;
40150;SDS011;25866;52.420;10.640;2022-07-29T13:41:53;2.40;;;1.23;;
40150;SDS011;25866;52.420;10.640;2022-07-29T13:44:18;3.20;;;1.50;;
40150;SDS011;25866;52.420;10.640;2022-07-29T13:46:44;3.42;;;1.63;;
40150;SDS011;25866;52.420;10.640;2022-07-29T13:49:10;2.53;;;1.45;;
40150;SDS011;25866;52.420;10.640;2022-07-29T13:51:37;1.95;;;1.30;;
40150;SDS011;25866;52.420;10.640;2022-07-29T13:54:03;2.25;;;1.30;;
40150;SDS011;25866;52.420;10.640;2022-07-29T13:56:29;4.60;;;1.48;;
40150;SDS011;25866;52.420;10.640;2022-07-29T13:58:55;1.98;;;1.30;;
40150;SDS011;25866;52.420;10.640;2022-07-29T14:01:23;3.45;;;1.35;;
40150;SDS011;25866;52.420;10.640;2022-07-29T14:03:49;1.67;;;1.17;;
40150;SDS011;25866;52.420;10.640;2022-07-29T14:06:15;2.08;;;1.30;;
40150;SDS011;25866;52.420;10.640;2022-07-29T14:08:40;2.85;;;1.30;;
40150;SDS011;25866;52.420;10.640;2022-07-29T14:13:35;5.30;;;1.63;;
40150;SDS011;25866;52.420;10.640;2022-07-29T14:16:00;4.20;;;1.77;;
40150;SDS011;25866;52.420;10.640;2022-07-29T14:18:26;4.15;;;1.45;;
40150;SDS011;25866;52.420;10.640;2022-07-29T14:20:52;2.42;;;1.33;;
40150;SDS011;25866;52.420;10.640;2022-07-29T14:23:18;1.60;;;1.23;;
40150;SDS011;25866;52.420;10.640;2022-07-29T14:25:43;3.72;;;1.60;;
40150;SDS011;25866;52.420;10.640;2022-07-29T14:28:09;3.42;;;1.42;;
40150;SDS011;25866;52.420;10.640;2022-07-29T14:30:35;2.70;;;1.35;;
40150;SDS011;25866;52.420;10.640;2022-07-29T14:35:47;3.65;;;1.40;;
40150;SDS011;25866;52.420;10.640;2022-07-29T14:38:12;2.70;;;1.30;;
40150;SDS011;25866;52.420;10.640;2022-07-29T14:40:38;2.53;;;1.30;;
40150;SDS011;25866;52.420;10.640;2022-07-29T14:43:15;4.68;;;1.25;;
40150;SDS011;25866;52.420;10.640;2022-07-29T14:45:40;2.60;;;1.45;;
40150;SDS011;25866;52.420;10.640;2022-07-29T14:48:06;5.07;;;1.40;;
40150;SDS011;25866;52.420;10.640;2022-07-29T14:50:32;2.45;;;1.33;;
40150;SDS011;25866;52.420;10.640;2022-07-29T14:55:44;3.53;;;1.48;;
40150;SDS011;25866;52.420;10.640;2022-07-29T14:58:10;2.22;;;1.45;;
40150;SDS011;25866;52.420;10.640;2022-07-29T15:00:35;2.15;;;1.40;;
40150;SDS011;25866;52.420;10.640;2022-07-29T15:05:35;2.72;;;1.65;;
40150;SDS011;25866;52.420;10.640;2022-07-29T15:08:01;4.20;;;1.60;;
40150;SDS011;25866;52.420;10.640;2022-07-29T15:10:27;3.17;;;1.40;;
40150;SDS011;25866;52.420;10.640;2022-07-29T15:15:22;4.13;;;1.77;;
40150;SDS011;25866;52.420;10.640;2022-07-29T15:17:48;5.30;;;1.30;;
40150;SDS011;25866;52.420;10.640;2022-07-29T15:20:14;2.83;;;1.48;;
40150;SDS011;25866;52.420;10.640;2022-07-29T15:22:42;1.77;;;1.38;;
40150;SDS011;25866;52.420;10.640;2022-07-29T15:25:08;2.20;;;1.35;;
40150;SDS011;25866;52.420;10.640;2022-07-29T15:27:33;2.72;;;1.58;;
40150;SDS011;25866;52.420;10.640;2022-07-29T15:29:59;2.50;;;1.30;;
40150;SDS011;25866;52.420;10.640;2022-07-29T15:32:25;4.47;;;1.40;;
40150;SDS011;25866;52.420;10.640;2022-07-29T15:34:51;4.03;;;1.70;;
40150;SDS011;25866;52.420;10.640;2022-07-29T15:37:16;3.90;;;1.42;;
40150;SDS011;25866;52.420;10.640;2022-07-29T15:39:42;2.22;;;1.50;;
40150;SDS011;25866;52.420;10.640;2022-07-29T15:44:37;2.15;;;1.40;;
40150;SDS011;25866;52.420;10.640;2022-07-29T15:47:03;3.30;;;1.73;;
40150;SDS011;25866;52.420;10.640;2022-07-29T15:49:32;4.40;;;1.45;;
40150;SDS011;25866;52.420;10.640;2022-07-29T15:52:06;2.60;;;1.50;;
40150;SDS011;25866;52.420;10.640;2022-07-29T15:54:34;4.03;;;1.65;;
40150;SDS011;25866;52.420;10.640;2022-07-29T15:57:00;3.78;;;1.50;;
40150;SDS011;25866;52.420;10.640;2022-07-29T15:59:26;6.35;;;1.52;;
40150;SDS011;25866;52.420;10.640;2022-07-29T16:01:52;2.03;;;1.30;;
40150;SDS011;25866;52.420;10.640;2022-07-29T16:06:54;3.45;;;1.20;;
40150;SDS011;25866;52.420;10.640;2022-07-29T16:09:19;5.70;;;1.58;;
40150;SDS011;25866;52.420;10.640;2022-07-29T16:11:46;3.60;;;1.60;;
40150;SDS011;25866;52.420;10.640;2022-07-29T16:14:28;5.03;;;1.65;;
40150;SDS011;25866;52.420;10.640;2022-07-29T16:16:53;4.03;;;1.67;;
40150;SDS011;25866;52.420;10.640;2022-07-29T16:19:19;4.75;;;1.60;;
40150;SDS011;25866;52.420;10.640;2022-07-29T16:21:44;3.20;;;1.30;;
40150;SDS011;25866;52.420;10.640;2022-07-29T16:24:14;4.80;;;1.33;;
40150;SDS011;25866;52.420;10.640;2022-07-29T16:26:40;1.63;;;1.10;;
40150;SDS011;25866;52.420;10.640;2022-07-29T16:29:06;2.17;;;1.50;;